Falken — SBCH — position and weather

sailwx.info

Track history (hours):
 
Tides and Currents Weather Stations Pressure Air Temp Water Temp Dewpoint Dewpoint Depression Visibility Wind Speed Wind Dir Waves Ship Positions

Falken (Sweden)

Last reported at 2015-Apr-19 00:33 UTC. Time now 2015-Apr-19 01:05 UTC.
Position N 48°32' W 005°14'.

Length 40 m; draft 4.2 m.

Type: Sailing vessel. MMSI: 265070000.

Date/timePositionNaut miles runAvg speedWind from/ knotsBaromVisibWave heightAir tempDewpointWater temp
2015-Apr-19 00:33N 48°32' W 005°14'4 3.6
2015-Apr-18 23:33N 48°28' W 005°15'3 2.8
2015-Apr-18 22:33N 48°26' W 005°15'3 2.9
2015-Apr-18 21:33N 48°23' W 005°15'3 3.0
2015-Apr-18 20:34N 48°20' W 005°15'3 3.4
2015-Apr-18 19:33N 48°16' W 005°15'3 2.9
2015-Apr-18 18:34N 48°14' W 005°16'3 2.7
2015-Apr-18 17:33N 48°11' W 005°16'4 3.8
2015-Apr-18 16:34N 48°07' W 005°18'6 5.8
2015-Apr-18 15:33N 48°02' W 005°20'8 7.5
2015-Apr-18 14:33N 47°54' W 005°23'  
2015-Apr-09 19:33N 39°26' W 009°28'7 7.0
2015-Apr-09 18:33N 39°19' W 009°29'7 6.6
2015-Apr-09 17:33N 39°13' W 009°29'6 6.0
2015-Apr-09 16:33N 39°07' W 009°31'6 5.6
2015-Apr-09 15:33N 39°01' W 009°33'5 4.6
2015-Apr-09 14:33N 38°59' W 009°28'4 3.7
2015-Apr-09 13:30N 38°55' W 009°30'4 4.6
2015-Apr-09 12:33N 38°51' W 009°31'3 2.8
2015-Apr-09 11:33N 38°48' W 009°32'4 3.7
2015-Apr-09 10:32N 38°44' W 009°32'6 5.9
2015-Apr-09 09:33N 38°39' W 009°32'7 7.5
2015-Apr-09 08:33N 38°31' W 009°30'8 7.7
2015-Apr-09 07:33N 38°24' W 009°28'7 7.3
2015-Apr-09 06:33N 38°17' W 009°26'8 7.5
2015-Apr-09 05:34N 38°09' W 009°24'7 7.4
2015-Apr-09 04:33N 38°02' W 009°23'8 7.5
2015-Apr-09 03:33N 37°54' W 009°21'7 6.6
2015-Apr-09 02:34N 37°48' W 009°19'6 6.0
2015-Apr-09 01:33N 37°42' W 009°16'  
Track history (hours):
 
Tides and Currents Weather Stations Pressure Air Temp Water Temp Dewpoint Dewpoint Depression Visibility Wind Speed Wind Dir Waves Ship Positions

Falken (Sweden)

Last reported at 2015-Apr-19 00:33 UTC. Time now 2015-Apr-19 01:05 UTC.
Position N 48°32' W 005°14'.

Length 40 m; draft 4.2 m.

Type: Sailing vessel. MMSI: 265070000.

Date/timePositionNaut miles runAvg speedWind from/ knotsBaromVisibWave heightAir tempDewpointWater temp
2015-Apr-19 00:33N 48°32' W 005°14'4 3.6
2015-Apr-18 23:33N 48°28' W 005°15'3 2.8
2015-Apr-18 22:33N 48°26' W 005°15'3 2.9
2015-Apr-18 21:33N 48°23' W 005°15'3 3.0
2015-Apr-18 20:34N 48°20' W 005°15'3 3.4
2015-Apr-18 19:33N 48°16' W 005°15'3 2.9
2015-Apr-18 18:34N 48°14' W 005°16'3 2.7
2015-Apr-18 17:33N 48°11' W 005°16'4 3.8
2015-Apr-18 16:34N 48°07' W 005°18'6 5.8
2015-Apr-18 15:33N 48°02' W 005°20'8 7.5
2015-Apr-18 14:33N 47°54' W 005°23'  
2015-Apr-09 19:33N 39°26' W 009°28'7 7.0
2015-Apr-09 18:33N 39°19' W 009°29'7 6.6
2015-Apr-09 17:33N 39°13' W 009°29'6 6.0
2015-Apr-09 16:33N 39°07' W 009°31'6 5.6
2015-Apr-09 15:33N 39°01' W 009°33'5 4.6
2015-Apr-09 14:33N 38°59' W 009°28'4 3.7
2015-Apr-09 13:30N 38°55' W 009°30'4 4.6
2015-Apr-09 12:33N 38°51' W 009°31'3 2.8
2015-Apr-09 11:33N 38°48' W 009°32'4 3.7
2015-Apr-09 10:32N 38°44' W 009°32'6 5.9
2015-Apr-09 09:33N 38°39' W 009°32'7 7.5
2015-Apr-09 08:33N 38°31' W 009°30'8 7.7
2015-Apr-09 07:33N 38°24' W 009°28'7 7.3
2015-Apr-09 06:33N 38°17' W 009°26'8 7.5
2015-Apr-09 05:34N 38°09' W 009°24'7 7.4
2015-Apr-09 04:33N 38°02' W 009°23'8 7.5
2015-Apr-09 03:33N 37°54' W 009°21'7 6.6
2015-Apr-09 02:34N 37°48' W 009°19'6 6.0
2015-Apr-09 01:33N 37°42' W 009°16'  

Dump ship's entire track history